createdAt,value
2022-08-07T00:02:36.277Z,25.08
2022-08-07T00:05:04.419Z,25.05
2022-08-07T00:07:40.311Z,24.96
2022-08-07T00:10:25.882Z,24.90
2022-08-07T00:12:59.921Z,24.85
2022-08-07T00:15:37.982Z,24.83
2022-08-07T00:18:19.492Z,24.81
2022-08-07T00:20:49.687Z,24.83
2022-08-07T00:23:18.540Z,24.82
2022-08-07T00:25:58.257Z,24.72
2022-08-07T00:28:33.711Z,24.64
2022-08-07T00:31:12.719Z,24.53
2022-08-07T00:33:47.426Z,24.52
2022-08-07T00:36:16.866Z,24.48
2022-08-07T00:38:45.256Z,24.48
2022-08-07T00:41:15.109Z,24.45
2022-08-07T00:44:00.667Z,24.42
2022-08-07T00:46:32.996Z,24.35
2022-08-07T00:49:03.458Z,24.19
2022-08-07T00:51:57.318Z,24.08
2022-08-07T00:54:20.650Z,23.99
2022-08-07T00:56:51.504Z,23.93
2022-08-07T00:59:35.053Z,23.88
2022-08-07T01:02:08.954Z,23.85
2022-08-07T01:04:43.459Z,23.83
2022-08-07T01:07:13.239Z,23.88
2022-08-07T01:10:06.537Z,23.89
2022-08-07T01:12:31.054Z,23.87
2022-08-07T01:15:00.926Z,23.75
2022-08-07T01:17:30.966Z,23.79
2022-08-07T01:20:06.564Z,23.82
2022-08-07T01:22:38.033Z,23.82
2022-08-07T01:25:53.691Z,23.83
2022-08-07T01:28:05.660Z,23.82
2022-08-07T01:30:36.012Z,23.75
2022-08-07T01:33:07.464Z,23.71
2022-08-07T01:35:53.115Z,23.76
2022-08-07T01:38:25.792Z,23.84
2022-08-07T01:41:02.292Z,23.77
2022-08-07T01:43:34.747Z,23.73
2022-08-07T01:46:12.319Z,23.72
2022-08-07T01:48:47.704Z,23.65
2022-08-07T01:52:00.923Z,23.69
2022-08-07T01:54:33.190Z,23.76
2022-08-07T01:57:24.774Z,23.78
2022-08-07T02:00:01.339Z,23.79
2022-08-07T02:03:12.566Z,23.76
2022-08-07T02:05:59.810Z,23.72
2022-08-07T02:08:34.157Z,23.66
2022-08-07T02:11:04.953Z,23.57
2022-08-07T02:13:57.534Z,23.54
2022-08-07T02:16:29.878Z,23.53
2022-08-07T02:19:05.384Z,23.53
2022-08-07T02:21:58.579Z,23.50
2022-08-07T02:24:29.936Z,23.45
2022-08-07T02:27:01.443Z,23.37
2022-08-07T02:29:34.415Z,23.37
2022-08-07T02:32:13.617Z,23.34
2022-08-07T02:34:51.201Z,23.32
2022-08-07T02:37:22.183Z,23.23
2022-08-07T02:40:02.331Z,23.14
2022-08-07T02:42:40.705Z,23.14
2022-08-07T02:45:57.569Z,23.06
2022-08-07T02:48:02.955Z,23.02
2022-08-07T02:50:35.458Z,23.04
2022-08-07T02:53:10.980Z,23.03
2022-08-07T02:56:03.933Z,23.03
2022-08-07T02:58:36.804Z,23.04
2022-08-07T03:01:18.658Z,22.96
2022-08-07T03:03:50.542Z,22.93
2022-08-07T03:06:33.246Z,22.97
2022-08-07T03:09:04.765Z,22.97
2022-08-07T03:11:38.404Z,23.04
2022-08-07T03:14:08.686Z,23.00
2022-08-07T03:16:38.551Z,22.94
2022-08-07T03:19:08.337Z,22.91
2022-08-07T03:21:37.463Z,22.90
2022-08-07T03:24:19.966Z,22.91
2022-08-07T03:26:59.748Z,22.92
2022-08-07T03:29:44.621Z,22.93
2022-08-07T03:32:29.782Z,22.87
2022-08-07T03:35:17.441Z,22.82
2022-08-07T03:37:56.670Z,22.80
2022-08-07T03:40:32.037Z,22.77
2022-08-07T03:43:13.639Z,22.76
2022-08-07T03:45:47.786Z,22.78
2022-08-07T03:48:19.152Z,22.71
2022-08-07T03:50:56.169Z,22.70
2022-08-07T03:53:50.205Z,22.71
2022-08-07T03:56:33.166Z,22.66
2022-08-07T03:59:08.644Z,22.58
2022-08-07T04:01:46.184Z,22.53
2022-08-07T04:04:18.193Z,22.47
2022-08-07T04:06:50.808Z,22.48
2022-08-07T04:09:23.477Z,22.43
2022-08-07T04:12:23.991Z,22.49
2022-08-07T04:14:46.146Z,22.52
2022-08-07T04:18:31.074Z,22.55
2022-08-07T04:20:10.410Z,22.51
2022-08-07T04:22:41.094Z,22.49
2022-08-07T04:25:24.297Z,22.48
2022-08-07T04:28:01.018Z,22.45
2022-08-07T04:30:43.337Z,22.48
2022-08-07T04:33:24.666Z,22.53
2022-08-07T04:35:54.732Z,22.56
2022-08-07T04:38:26.489Z,22.61
2022-08-07T04:40:56.854Z,22.65
2022-08-07T04:44:10.648Z,22.72
2022-08-07T04:47:04.601Z,22.73
2022-08-07T04:50:05.406Z,22.76
2022-08-07T04:52:54.415Z,22.82
2022-08-07T04:58:07.588Z,23.07
2022-08-07T04:59:01.582Z,23.27
2022-08-07T05:01:40.815Z,23.54
2022-08-07T05:04:17.369Z,23.74
2022-08-07T05:07:19.782Z,23.90
2022-08-07T05:09:59.785Z,24.00
2022-08-07T05:12:51.387Z,24.07
2022-08-07T05:15:31.352Z,24.09
2022-08-07T05:18:09.259Z,24.11
2022-08-07T05:20:42.728Z,24.20
2022-08-07T05:23:20.008Z,24.28
2022-08-07T05:26:13.328Z,24.36
2022-08-07T05:28:48.614Z,24.47
2022-08-07T05:31:22.938Z,24.58
2022-08-07T05:34:04.944Z,24.51
2022-08-07T05:36:42.163Z,24.36
2022-08-07T05:40:17.114Z,24.36
2022-08-07T05:42:12.388Z,24.41
2022-08-07T05:44:52.977Z,24.40
2022-08-07T05:47:38.608Z,24.40
2022-08-07T05:50:21.798Z,24.40
2022-08-07T05:52:50.272Z,24.39
2022-08-07T05:55:18.775Z,24.46
2022-08-07T05:57:48.152Z,24.49
2022-08-07T06:00:19.976Z,24.58
2022-08-07T06:02:55.680Z,24.73
2022-08-07T06:05:29.082Z,24.70
2022-08-07T06:08:13.071Z,24.66
2022-08-07T06:10:51.238Z,24.69
2022-08-07T06:14:11.624Z,24.72
2022-08-07T06:16:13.685Z,24.82
2022-08-07T06:18:51.447Z,24.95
2022-08-07T06:22:14.368Z,25.07
2022-08-07T06:24:52.491Z,25.21
2022-08-07T06:27:03.690Z,25.35
2022-08-07T06:29:34.305Z,25.46
2022-08-07T06:32:02.949Z,25.54
2022-08-07T06:34:33.020Z,25.67
2022-08-07T06:37:02.442Z,25.69
2022-08-07T06:40:16.776Z,25.80
2022-08-07T06:42:26.595Z,25.71
2022-08-07T06:45:17.946Z,25.76
2022-08-07T06:47:58.372Z,25.89
2022-08-07T06:50:33.610Z,25.95
2022-08-07T06:53:07.217Z,26.00
2022-08-07T06:56:00.898Z,26.22
2022-08-07T06:58:32.190Z,26.45
2022-08-07T07:01:07.711Z,26.50
2022-08-07T07:03:49.952Z,26.52
2022-08-07T07:06:26.624Z,26.57
2022-08-07T07:08:56.738Z,26.62
2022-08-07T07:12:08.673Z,26.68
2022-08-07T07:14:16.967Z,26.66
2022-08-07T07:16:50.885Z,26.77
2022-08-07T07:19:56.263Z,26.88
2022-08-07T07:22:36.513Z,27.15
2022-08-07T07:26:31.152Z,27.38
2022-08-07T07:28:29.916Z,27.46
2022-08-07T07:30:57.668Z,27.43
2022-08-07T07:33:29.020Z,27.53
2022-08-07T07:36:05.475Z,27.66
2022-08-07T07:38:45.959Z,27.80
2022-08-07T07:41:17.566Z,28.02
2022-08-07T07:44:17.643Z,28.15
2022-08-07T07:46:55.702Z,28.26
2022-08-07T07:50:36.038Z,28.40
2022-08-07T07:52:21.955Z,28.63
2022-08-07T07:54:54.312Z,28.87
2022-08-07T07:57:52.223Z,29.00
2022-08-07T08:00:21.133Z,29.24
2022-08-07T08:03:08.051Z,29.63
2022-08-07T08:05:42.964Z,29.86
2022-08-07T08:08:35.206Z,29.99
2022-08-07T08:11:08.497Z,30.30
2022-08-07T08:13:55.453Z,30.44
2022-08-07T08:16:39.117Z,30.66
2022-08-07T08:19:17.782Z,30.78
2022-08-07T08:22:18.937Z,30.94
2022-08-07T08:25:24.996Z,31.05
2022-08-07T08:28:01.982Z,31.15
2022-08-07T08:30:37.533Z,31.27
2022-08-07T08:33:18.855Z,31.37
2022-08-07T08:35:51.879Z,31.50
2022-08-07T08:38:29.562Z,31.60
2022-08-07T08:41:57.587Z,31.63
2022-08-07T08:45:00.728Z,31.71
2022-08-07T08:47:47.401Z,31.67
2022-08-07T08:50:39.469Z,31.38
2022-08-07T08:53:32.649Z,31.06
2022-08-07T08:56:08.620Z,30.69
2022-08-07T08:59:17.005Z,30.44
2022-08-07T09:02:08.926Z,30.34
2022-08-07T09:05:10.091Z,30.27
2022-08-07T09:07:58.190Z,30.16
2022-08-07T09:10:44.343Z,30.44
2022-08-07T09:13:35.249Z,30.91
2022-08-07T09:16:39.771Z,31.42
2022-08-07T09:19:51.132Z,31.73
2022-08-07T09:24:27.522Z,31.69
2022-08-07T09:25:17.598Z,31.67
2022-08-07T09:28:01.231Z,31.62
2022-08-07T09:31:01.070Z,31.49
2022-08-07T09:33:59.834Z,31.41
2022-08-07T09:36:36.934Z,31.51
2022-08-07T09:39:55.093Z,31.76
2022-08-07T09:42:42.251Z,31.98
2022-08-07T09:47:51.686Z,31.94
2022-08-07T09:48:19.125Z,31.85
2022-08-07T09:50:56.546Z,31.81
2022-08-07T09:53:40.487Z,31.88
2022-08-07T09:56:44.158Z,31.89
2022-08-07T09:59:44.599Z,32.04
2022-08-07T10:02:55.309Z,32.42
2022-08-07T10:06:00.188Z,32.73
2022-08-07T10:08:52.183Z,32.92
2022-08-07T10:12:01.579Z,32.94
2022-08-07T10:15:00.247Z,33.07
2022-08-07T10:18:03.067Z,33.23
2022-08-07T10:20:50.178Z,33.24
2022-08-07T10:24:05.650Z,33.19
2022-08-07T10:27:00.421Z,33.26
2022-08-07T10:29:45.799Z,33.33
2022-08-07T10:32:51.339Z,33.39
2022-08-07T10:36:05.584Z,33.53
2022-08-07T10:39:12.851Z,33.53
2022-08-07T10:42:00.461Z,33.52
2022-08-07T10:44:50.050Z,33.58
2022-08-07T10:47:53.122Z,33.67
2022-08-07T10:50:31.845Z,33.80
2022-08-07T10:53:21.587Z,33.87
2022-08-07T10:56:20.907Z,33.74
2022-08-07T10:59:30.466Z,33.69
2022-08-07T11:02:27.397Z,33.69
2022-08-07T11:05:35.638Z,33.72
2022-08-07T11:08:40.363Z,33.79
2022-08-07T11:11:14.521Z,33.82
2022-08-07T11:14:45.906Z,33.74
2022-08-07T11:17:01.103Z,33.80
2022-08-07T11:19:46.345Z,33.82
2022-08-07T11:22:37.134Z,33.78
2022-08-07T11:25:36.224Z,33.80
2022-08-07T11:28:25.435Z,33.81
2022-08-07T11:31:17.444Z,33.70
2022-08-07T11:34:06.909Z,33.67
2022-08-07T11:36:56.726Z,33.78
2022-08-07T11:40:00.609Z,33.78
2022-08-07T11:42:59.180Z,33.82
2022-08-07T11:45:49.838Z,33.91
2022-08-07T11:48:53.833Z,33.85
2022-08-07T11:51:58.641Z,33.82
2022-08-07T11:54:55.117Z,33.77
2022-08-07T11:58:00.203Z,33.80
2022-08-07T12:01:02.214Z,33.81
2022-08-07T12:04:03.622Z,33.85
2022-08-07T12:06:57.229Z,34.04
2022-08-07T12:09:36.139Z,34.08
2022-08-07T12:12:12.051Z,34.10
2022-08-07T12:14:55.277Z,34.19
2022-08-07T12:17:37.939Z,34.30
2022-08-07T12:20:30.621Z,34.34
2022-08-07T12:23:37.348Z,34.54
2022-08-07T12:26:29.813Z,34.59
2022-08-07T12:29:03.718Z,34.49
2022-08-07T12:32:01.972Z,34.40
2022-08-07T12:34:37.576Z,34.35
2022-08-07T12:37:22.953Z,34.29
2022-08-07T12:39:58.857Z,34.30
2022-08-07T12:42:31.816Z,34.47
2022-08-07T12:45:11.924Z,34.50
2022-08-07T12:47:46.381Z,34.54
2022-08-07T12:50:49.188Z,34.67
2022-08-07T12:53:18.845Z,34.73
2022-08-07T12:56:03.241Z,34.76
2022-08-07T12:58:39.624Z,34.78
2022-08-07T13:01:17.103Z,34.71
2022-08-07T13:04:03.140Z,34.69
2022-08-07T13:07:01.783Z,34.78
2022-08-07T13:10:21.572Z,34.97
2022-08-07T13:12:54.264Z,35.15
2022-08-07T13:15:36.971Z,35.14
2022-08-07T13:18:26.424Z,35.12
2022-08-07T13:21:05.226Z,35.15
2022-08-07T13:24:01.021Z,35.16
2022-08-07T13:26:49.508Z,35.19
2022-08-07T13:29:27.535Z,35.27
2022-08-07T13:32:31.719Z,35.35
2022-08-07T13:35:15.801Z,35.41
2022-08-07T13:38:19.279Z,35.29
2022-08-07T13:41:22.042Z,35.23
2022-08-07T13:43:56.928Z,35.11
2022-08-07T13:46:33.191Z,35.05
2022-08-07T13:49:08.663Z,34.99
2022-08-07T13:52:04.967Z,35.04
2022-08-07T13:54:49.231Z,35.04
2022-08-07T13:57:23.942Z,35.09
2022-08-07T14:00:26.214Z,35.24
2022-08-07T14:02:57.364Z,35.22
2022-08-07T14:05:37.164Z,35.18
2022-08-07T14:08:09.397Z,35.12
2022-08-07T14:10:42.189Z,35.06
2022-08-07T14:13:18.675Z,35.00
2022-08-07T14:15:57.042Z,34.92
2022-08-07T14:18:33.185Z,34.85
2022-08-07T14:22:01.145Z,34.74
2022-08-07T14:24:05.375Z,34.67
2022-08-07T14:26:50.628Z,34.68
2022-08-07T14:30:07.430Z,34.74
2022-08-07T14:32:16.472Z,34.76
2022-08-07T14:34:49.192Z,34.70
2022-08-07T14:37:32.896Z,34.69
2022-08-07T14:40:17.552Z,34.69
2022-08-07T14:45:59.971Z,34.59
2022-08-07T14:48:40.744Z,34.57
2022-08-07T14:51:18.147Z,34.45
2022-08-07T14:54:09.704Z,34.38
2022-08-07T14:56:43.840Z,34.26
2022-08-07T15:00:03.252Z,34.26
2022-08-07T15:02:31.951Z,34.35
2022-08-07T15:07:55.715Z,34.21
2022-08-07T15:10:29.987Z,34.15
2022-08-07T15:15:58.088Z,34.01
2022-08-07T15:18:41.719Z,34.02
2022-08-07T15:21:58.706Z,33.96
2022-08-07T15:25:14.522Z,33.86
2022-08-07T15:27:19.626Z,33.71
2022-08-07T15:30:08.586Z,33.64
2022-08-07T15:32:51.165Z,33.62
2022-08-07T15:36:00.818Z,33.50
2022-08-07T15:38:33.158Z,33.37
2022-08-07T15:44:12.758Z,33.23
2022-08-07T15:46:51.769Z,33.20
2022-08-07T15:50:05.215Z,33.17
2022-08-07T15:52:30.265Z,33.11
2022-08-07T15:55:08.710Z,33.02
2022-08-07T15:57:47.481Z,32.91
2022-08-07T16:00:33.622Z,32.75
2022-08-07T16:03:21.503Z,32.71
2022-08-07T16:05:58.903Z,32.62
2022-08-07T16:08:37.779Z,32.59
2022-08-07T16:11:27.564Z,32.54
2022-08-07T16:14:33.303Z,32.53
2022-08-07T16:18:02.552Z,32.42
2022-08-07T16:20:33.730Z,32.26
2022-08-07T16:23:52.949Z,32.16
2022-08-07T16:26:59.612Z,32.00
2022-08-07T16:30:09.620Z,31.90
2022-08-07T16:34:02.827Z,31.92
2022-08-07T16:36:19.940Z,31.83
2022-08-07T16:39:00.911Z,31.77
2022-08-07T16:41:41.082Z,31.67
2022-08-07T16:44:40.415Z,31.57
2022-08-07T16:47:41.186Z,31.54
2022-08-07T16:50:35.679Z,31.40
2022-08-07T16:54:02.259Z,31.29
2022-08-07T16:56:38.880Z,31.26
2022-08-07T16:59:19.042Z,31.17
2022-08-07T17:03:04.991Z,31.09
2022-08-07T17:06:29.000Z,31.04
2022-08-07T17:09:09.328Z,30.93
2022-08-07T17:12:04.326Z,30.87
2022-08-07T17:14:58.809Z,30.84
2022-08-07T17:17:47.052Z,30.82
2022-08-07T17:20:29.977Z,30.74
2022-08-07T17:23:16.779Z,30.61
2022-08-07T17:25:53.735Z,30.49
2022-08-07T17:28:35.687Z,30.36
2022-08-07T17:31:18.064Z,30.27
2022-08-07T17:34:32.702Z,30.19
2022-08-07T17:36:58.166Z,30.11
2022-08-07T17:39:57.794Z,29.99
2022-08-07T17:42:58.652Z,29.97
2022-08-07T17:45:42.481Z,29.90
2022-08-07T17:48:16.807Z,29.86
2022-08-07T17:51:21.326Z,29.81
2022-08-07T17:54:29.712Z,29.77
2022-08-07T17:57:18.980Z,29.71
2022-08-07T17:59:53.044Z,29.62
2022-08-07T18:02:53.814Z,29.53
2022-08-07T18:06:02.336Z,29.48
2022-08-07T18:09:01.360Z,29.37
2022-08-07T18:12:07.681Z,29.27
2022-08-07T18:14:44.985Z,29.22
2022-08-07T18:18:44.949Z,29.13
2022-08-07T18:21:07.641Z,29.04
2022-08-07T18:23:42.380Z,28.93
2022-08-07T18:26:05.417Z,28.76
2022-08-07T18:28:58.374Z,28.67
2022-08-07T18:31:50.378Z,28.59
2022-08-07T18:35:00.625Z,28.58
2022-08-07T18:38:57.384Z,28.49
2022-08-07T18:40:59.285Z,28.41
2022-08-07T18:43:58.168Z,28.32
2022-08-07T18:46:48.105Z,28.29
2022-08-07T18:50:30.075Z,28.28
2022-08-07T18:52:53.946Z,28.15
2022-08-07T18:55:43.047Z,28.07
2022-08-07T18:58:32.954Z,28.02
2022-08-07T19:02:32.190Z,27.95
2022-08-07T19:04:54.524Z,27.88
2022-08-07T19:07:51.881Z,27.83
2022-08-07T19:10:51.585Z,27.81
2022-08-07T19:13:43.040Z,27.76
2022-08-07T19:17:05.708Z,27.69
2022-08-07T19:19:59.382Z,27.66
2022-08-07T19:22:32.021Z,27.57
2022-08-07T19:25:06.559Z,27.47
2022-08-07T19:28:30.630Z,27.39
2022-08-07T19:31:03.822Z,27.34
2022-08-07T19:33:35.207Z,27.26
2022-08-07T19:36:08.798Z,27.16
2022-08-07T19:38:52.971Z,27.07
2022-08-07T19:41:44.370Z,27.07
2022-08-07T19:44:21.245Z,27.01
2022-08-07T19:46:57.513Z,26.91
2022-08-07T19:49:57.369Z,26.81
2022-08-07T19:52:18.736Z,26.73
2022-08-07T19:54:56.631Z,26.64
2022-08-07T19:58:02.865Z,26.57
2022-08-07T20:00:39.913Z,26.52
2022-08-07T20:03:33.698Z,26.46
2022-08-07T20:06:06.272Z,26.40
2022-08-07T20:08:50.335Z,26.34
2022-08-07T20:11:34.334Z,26.36
2022-08-07T20:14:23.122Z,26.34
2022-08-07T20:17:04.043Z,26.31
2022-08-07T20:19:48.034Z,26.29
2022-08-07T20:22:33.828Z,26.28
2022-08-07T20:25:19.275Z,26.24
2022-08-07T20:27:57.916Z,26.21
2022-08-07T20:30:40.770Z,26.18
2022-08-07T20:33:24.389Z,26.14
2022-08-07T20:36:08.029Z,26.09
2022-08-07T20:38:53.630Z,26.04
2022-08-07T20:41:34.214Z,26.03
2022-08-07T20:44:12.572Z,26.05
2022-08-07T20:46:45.188Z,26.05
2022-08-07T20:50:00.721Z,26.02
2022-08-07T20:52:16.393Z,25.95
2022-08-07T20:54:55.399Z,25.91
2022-08-07T20:57:38.681Z,25.89
2022-08-07T21:00:21.899Z,25.84
2022-08-07T21:03:01.375Z,25.76
2022-08-07T21:05:52.803Z,25.64
2022-08-07T21:08:38.158Z,25.57
2022-08-07T21:11:14.779Z,25.57
2022-08-07T21:14:16.270Z,25.54
2022-08-07T21:16:56.828Z,25.48
2022-08-07T21:19:51.154Z,25.41
2022-08-07T21:22:31.484Z,25.36
2022-08-07T21:25:20.657Z,25.30
2022-08-07T21:28:50.024Z,25.20
2022-08-07T21:32:42.075Z,25.07
2022-08-07T21:34:31.849Z,24.98
2022-08-07T21:37:09.203Z,24.91
2022-08-07T21:40:03.257Z,24.90
2022-08-07T21:42:46.174Z,24.87
2022-08-07T21:46:08.584Z,24.83
2022-08-07T21:48:42.324Z,24.84
2022-08-07T21:51:20.079Z,24.81
2022-08-07T21:54:23.113Z,24.78
2022-08-07T21:57:39.364Z,24.75
2022-08-07T22:00:22.189Z,24.68
2022-08-07T22:03:31.639Z,24.64
2022-08-07T22:06:30.442Z,24.59
2022-08-07T22:09:11.025Z,24.57
2022-08-07T22:12:05.666Z,24.57
2022-08-07T22:15:00.162Z,24.54
2022-08-07T22:17:35.940Z,24.45
2022-08-07T22:20:23.959Z,24.39
2022-08-07T22:23:01.853Z,24.33
2022-08-07T22:25:36.061Z,24.25
2022-08-07T22:28:31.779Z,24.24
2022-08-07T22:31:58.972Z,24.26
2022-08-07T22:34:35.491Z,24.21
2022-08-07T22:37:12.548Z,24.20
2022-08-07T22:39:59.801Z,24.19
2022-08-07T22:42:35.278Z,24.20
2022-08-07T22:45:10.916Z,24.17
2022-08-07T22:48:31.757Z,24.14
2022-08-07T22:51:22.526Z,24.11
2022-08-07T22:54:16.166Z,24.10
2022-08-07T22:57:17.155Z,24.07
2022-08-07T23:00:01.072Z,24.01
2022-08-07T23:02:48.801Z,24.01
2022-08-07T23:06:09.905Z,23.98
2022-08-07T23:08:46.208Z,23.98
2022-08-07T23:11:35.196Z,23.92
2022-08-07T23:14:24.518Z,23.84
2022-08-07T23:17:22.449Z,23.84
2022-08-07T23:20:52.319Z,23.86
2022-08-07T23:24:05.232Z,23.85
2022-08-07T23:26:23.564Z,23.78
2022-08-07T23:28:54.601Z,23.69
2022-08-07T23:34:19.498Z,23.67
2022-08-07T23:35:14.098Z,23.66
2022-08-07T23:38:01.160Z,23.59
2022-08-07T23:40:43.296Z,23.51
2022-08-07T23:43:59.183Z,23.44
2022-08-07T23:46:35.916Z,23.35
2022-08-07T23:49:49.819Z,23.29
2022-08-07T23:52:58.477Z,23.22
2022-08-07T23:55:52.270Z,23.19
2022-08-07T23:58:35.166Z,23.16
